sensor_id;sensor_type;location;lat;lon;timestamp;temperature;humidity
18085;DHT22;9169;44.492;11.372;2023-07-29T00:00:15;29.30;42.50
18085;DHT22;9169;44.492;11.372;2023-07-29T00:02:44;29.20;42.50
18085;DHT22;9169;44.492;11.372;2023-07-29T00:05:13;29.20;42.70
18085;DHT22;9169;44.492;11.372;2023-07-29T00:07:41;29.20;42.60
18085;DHT22;9169;44.492;11.372;2023-07-29T00:10:10;29.20;42.70
18085;DHT22;9169;44.492;11.372;2023-07-29T00:12:40;29.20;42.70
18085;DHT22;9169;44.492;11.372;2023-07-29T00:15:09;29.10;42.80
18085;DHT22;9169;44.492;11.372;2023-07-29T00:17:38;29.10;42.80
18085;DHT22;9169;44.492;11.372;2023-07-29T00:20:07;29.10;43.00
18085;DHT22;9169;44.492;11.372;2023-07-29T00:22:36;29.10;43.00
18085;DHT22;9169;44.492;11.372;2023-07-29T00:25:05;29.00;43.50
18085;DHT22;9169;44.492;11.372;2023-07-29T00:27:34;29.00;42.90
18085;DHT22;9169;44.492;11.372;2023-07-29T00:30:06;29.00;42.90
18085;DHT22;9169;44.492;11.372;2023-07-29T00:32:36;29.00;43.00
18085;DHT22;9169;44.492;11.372;2023-07-29T00:35:06;29.00;43.10
18085;DHT22;9169;44.492;11.372;2023-07-29T00:37:36;29.00;43.10
18085;DHT22;9169;44.492;11.372;2023-07-29T00:40:12;29.00;43.00
18085;DHT22;9169;44.492;11.372;2023-07-29T00:42:42;28.90;43.10
18085;DHT22;9169;44.492;11.372;2023-07-29T00:45:12;28.90;43.20
18085;DHT22;9169;44.492;11.372;2023-07-29T00:47:42;28.80;43.30
18085;DHT22;9169;44.492;11.372;2023-07-29T00:50:12;28.80;43.30
18085;DHT22;9169;44.492;11.372;2023-07-29T00:52:41;28.80;43.40
18085;DHT22;9169;44.492;11.372;2023-07-29T00:55:10;28.80;43.40
18085;DHT22;9169;44.492;11.372;2023-07-29T00:57:38;28.80;43.40
18085;DHT22;9169;44.492;11.372;2023-07-29T01:00:08;28.80;43.50
18085;DHT22;9169;44.492;11.372;2023-07-29T01:02:39;28.80;43.50
18085;DHT22;9169;44.492;11.372;2023-07-29T01:05:08;28.70;43.60
18085;DHT22;9169;44.492;11.372;2023-07-29T01:07:42;28.70;43.60
18085;DHT22;9169;44.492;11.372;2023-07-29T01:10:19;28.70;43.60
18085;DHT22;9169;44.492;11.372;2023-07-29T01:12:54;28.70;43.80
18085;DHT22;9169;44.492;11.372;2023-07-29T01:15:29;28.70;44.00
18085;DHT22;9169;44.492;11.372;2023-07-29T01:18:04;28.60;43.90
18085;DHT22;9169;44.492;11.372;2023-07-29T01:20:38;28.60;43.80
18085;DHT22;9169;44.492;11.372;2023-07-29T01:23:08;28.60;43.90
18085;DHT22;9169;44.492;11.372;2023-07-29T01:25:38;28.60;43.80
18085;DHT22;9169;44.492;11.372;2023-07-29T01:28:07;28.60;43.90
18085;DHT22;9169;44.492;11.372;2023-07-29T01:30:39;28.60;43.90
18085;DHT22;9169;44.492;11.372;2023-07-29T01:33:14;28.60;44.00
18085;DHT22;9169;44.492;11.372;2023-07-29T01:35:47;28.60;44.00
18085;DHT22;9169;44.492;11.372;2023-07-29T01:38:19;28.50;44.00
18085;DHT22;9169;44.492;11.372;2023-07-29T01:40:50;28.50;44.00
18085;DHT22;9169;44.492;11.372;2023-07-29T01:43:20;28.50;44.10
18085;DHT22;9169;44.492;11.372;2023-07-29T01:45:53;28.40;44.00
18085;DHT22;9169;44.492;11.372;2023-07-29T01:48:22;28.40;44.00
18085;DHT22;9169;44.492;11.372;2023-07-29T01:50:51;28.40;44.20
18085;DHT22;9169;44.492;11.372;2023-07-29T01:53:20;28.40;44.20
18085;DHT22;9169;44.492;11.372;2023-07-29T01:55:49;28.30;44.20
18085;DHT22;9169;44.492;11.372;2023-07-29T01:58:18;28.30;44.20
18085;DHT22;9169;44.492;11.372;2023-07-29T02:00:48;28.30;44.40
18085;DHT22;9169;44.492;11.372;2023-07-29T02:03:16;28.30;44.40
18085;DHT22;9169;44.492;11.372;2023-07-29T02:05:45;28.20;44.30
18085;DHT22;9169;44.492;11.372;2023-07-29T02:08:14;28.20;44.30
18085;DHT22;9169;44.492;11.372;2023-07-29T02:10:42;28.20;44.50
18085;DHT22;9169;44.492;11.372;2023-07-29T02:13:13;28.20;44.50
18085;DHT22;9169;44.492;11.372;2023-07-29T02:15:42;28.20;44.70
18085;DHT22;9169;44.492;11.372;2023-07-29T02:18:11;28.20;44.50
18085;DHT22;9169;44.492;11.372;2023-07-29T02:20:39;28.20;44.50
18085;DHT22;9169;44.492;11.372;2023-07-29T02:23:13;28.20;44.60
18085;DHT22;9169;44.492;11.372;2023-07-29T02:25:41;28.20;45.20
18085;DHT22;9169;44.492;11.372;2023-07-29T02:28:10;28.20;44.70
18085;DHT22;9169;44.492;11.372;2023-07-29T02:30:41;28.10;44.70
18085;DHT22;9169;44.492;11.372;2023-07-29T02:33:11;28.10;45.10
18085;DHT22;9169;44.492;11.372;2023-07-29T02:35:40;28.10;44.80
18085;DHT22;9169;44.492;11.372;2023-07-29T02:38:08;28.10;44.70
18085;DHT22;9169;44.492;11.372;2023-07-29T02:40:38;28.10;44.70
18085;DHT22;9169;44.492;11.372;2023-07-29T02:43:06;28.10;44.80
18085;DHT22;9169;44.492;11.372;2023-07-29T02:45:35;28.10;44.90
18085;DHT22;9169;44.492;11.372;2023-07-29T02:48:05;28.10;44.90
18085;DHT22;9169;44.492;11.372;2023-07-29T02:50:34;28.10;44.90
18085;DHT22;9169;44.492;11.372;2023-07-29T02:53:03;28.10;44.90
18085;DHT22;9169;44.492;11.372;2023-07-29T02:55:31;28.10;44.90
18085;DHT22;9169;44.492;11.372;2023-07-29T02:58:00;28.10;44.90
18085;DHT22;9169;44.492;11.372;2023-07-29T03:00:31;28.10;44.90
18085;DHT22;9169;44.492;11.372;2023-07-29T03:03:00;28.10;44.90
18085;DHT22;9169;44.492;11.372;2023-07-29T03:05:30;28.10;44.80
18085;DHT22;9169;44.492;11.372;2023-07-29T03:07:59;28.10;44.80
18085;DHT22;9169;44.492;11.372;2023-07-29T03:10:27;28.10;44.90
18085;DHT22;9169;44.492;11.372;2023-07-29T03:12:56;28.00;44.90
18085;DHT22;9169;44.492;11.372;2023-07-29T03:15:25;28.00;44.90
18085;DHT22;9169;44.492;11.372;2023-07-29T03:17:53;28.00;44.90
18085;DHT22;9169;44.492;11.372;2023-07-29T03:20:22;28.00;44.90
18085;DHT22;9169;44.492;11.372;2023-07-29T03:22:52;28.00;45.00
18085;DHT22;9169;44.492;11.372;2023-07-29T03:25:21;28.00;45.00
18085;DHT22;9169;44.492;11.372;2023-07-29T03:27:49;27.90;45.00
18085;DHT22;9169;44.492;11.372;2023-07-29T03:30:19;27.90;45.00
18085;DHT22;9169;44.492;11.372;2023-07-29T03:32:50;27.90;45.30
18085;DHT22;9169;44.492;11.372;2023-07-29T03:35:19;27.90;45.10
18085;DHT22;9169;44.492;11.372;2023-07-29T03:37:47;27.90;45.40
18085;DHT22;9169;44.492;11.372;2023-07-29T03:40:17;27.80;45.60
18085;DHT22;9169;44.492;11.372;2023-07-29T03:42:46;27.80;45.40
18085;DHT22;9169;44.492;11.372;2023-07-29T03:45:15;27.80;45.40
18085;DHT22;9169;44.492;11.372;2023-07-29T03:47:44;27.80;45.40
18085;DHT22;9169;44.492;11.372;2023-07-29T03:50:13;27.80;45.40
18085;DHT22;9169;44.492;11.372;2023-07-29T03:52:41;27.80;45.30
18085;DHT22;9169;44.492;11.372;2023-07-29T03:55:10;27.80;45.60
18085;DHT22;9169;44.492;11.372;2023-07-29T03:57:40;27.70;45.40
18085;DHT22;9169;44.492;11.372;2023-07-29T04:00:09;27.80;45.60
18085;DHT22;9169;44.492;11.372;2023-07-29T04:02:46;27.80;45.60
18085;DHT22;9169;44.492;11.372;2023-07-29T04:05:15;27.70;45.80
18085;DHT22;9169;44.492;11.372;2023-07-29T04:07:44;27.70;45.90
18085;DHT22;9169;44.492;11.372;2023-07-29T04:10:13;27.70;46.20
18085;DHT22;9169;44.492;11.372;2023-07-29T04:12:43;27.70;45.90
18085;DHT22;9169;44.492;11.372;2023-07-29T04:15:12;27.70;46.00
18085;DHT22;9169;44.492;11.372;2023-07-29T04:17:41;27.60;45.90
18085;DHT22;9169;44.492;11.372;2023-07-29T04:20:10;27.60;46.10
18085;DHT22;9169;44.492;11.372;2023-07-29T04:22:39;27.60;46.10
18085;DHT22;9169;44.492;11.372;2023-07-29T04:25:08;27.60;46.40
18085;DHT22;9169;44.492;11.372;2023-07-29T04:27:37;27.60;46.30
18085;DHT22;9169;44.492;11.372;2023-07-29T04:30:08;27.60;46.30
18085;DHT22;9169;44.492;11.372;2023-07-29T04:32:37;27.60;46.30
18085;DHT22;9169;44.492;11.372;2023-07-29T04:35:07;27.60;46.20
18085;DHT22;9169;44.492;11.372;2023-07-29T04:37:36;27.60;46.20
18085;DHT22;9169;44.492;11.372;2023-07-29T04:40:06;27.50;46.10
18085;DHT22;9169;44.492;11.372;2023-07-29T04:42:36;27.50;46.10
18085;DHT22;9169;44.492;11.372;2023-07-29T04:45:07;27.50;46.20
18085;DHT22;9169;44.492;11.372;2023-07-29T04:47:35;27.50;46.20
18085;DHT22;9169;44.492;11.372;2023-07-29T04:50:05;27.50;46.40
18085;DHT22;9169;44.492;11.372;2023-07-29T04:52:34;27.50;46.40
18085;DHT22;9169;44.492;11.372;2023-07-29T04:55:03;27.50;46.30
18085;DHT22;9169;44.492;11.372;2023-07-29T04:57:32;27.60;46.40
18085;DHT22;9169;44.492;11.372;2023-07-29T05:00:02;27.60;46.40
18085;DHT22;9169;44.492;11.372;2023-07-29T05:02:32;27.60;46.60
18085;DHT22;9169;44.492;11.372;2023-07-29T05:05:00;27.60;46.80
18085;DHT22;9169;44.492;11.372;2023-07-29T05:07:29;27.60;46.90
18085;DHT22;9169;44.492;11.372;2023-07-29T05:09:58;27.60;47.10
18085;DHT22;9169;44.492;11.372;2023-07-29T05:12:27;27.60;47.20
18085;DHT22;9169;44.492;11.372;2023-07-29T05:14:56;27.60;47.30
18085;DHT22;9169;44.492;11.372;2023-07-29T05:17:25;27.70;47.20
18085;DHT22;9169;44.492;11.372;2023-07-29T05:19:55;27.70;47.40
18085;DHT22;9169;44.492;11.372;2023-07-29T05:22:24;27.70;47.40
18085;DHT22;9169;44.492;11.372;2023-07-29T05:24:53;27.70;47.30
18085;DHT22;9169;44.492;11.372;2023-07-29T05:27:21;27.70;47.30
18085;DHT22;9169;44.492;11.372;2023-07-29T05:29:50;27.70;47.30
18085;DHT22;9169;44.492;11.372;2023-07-29T05:32:18;27.80;47.40
18085;DHT22;9169;44.492;11.372;2023-07-29T05:34:48;27.80;47.40
18085;DHT22;9169;44.492;11.372;2023-07-29T05:37:18;27.90;47.50
18085;DHT22;9169;44.492;11.372;2023-07-29T05:39:47;27.90;47.60
18085;DHT22;9169;44.492;11.372;2023-07-29T05:42:16;28.00;47.60
18085;DHT22;9169;44.492;11.372;2023-07-29T05:44:44;28.00;47.30
18085;DHT22;9169;44.492;11.372;2023-07-29T05:47:13;28.00;47.30
18085;DHT22;9169;44.492;11.372;2023-07-29T05:49:41;28.10;47.40
18085;DHT22;9169;44.492;11.372;2023-07-29T05:52:10;28.10;47.30
18085;DHT22;9169;44.492;11.372;2023-07-29T05:54:40;28.20;47.30
18085;DHT22;9169;44.492;11.372;2023-07-29T05:57:10;28.20;47.30
18085;DHT22;9169;44.492;11.372;2023-07-29T05:59:40;28.20;47.20
18085;DHT22;9169;44.492;11.372;2023-07-29T06:02:08;28.30;47.10
18085;DHT22;9169;44.492;11.372;2023-07-29T06:04:37;28.30;47.00
18085;DHT22;9169;44.492;11.372;2023-07-29T06:07:08;28.40;47.00
18085;DHT22;9169;44.492;11.372;2023-07-29T06:09:37;28.40;47.20
18085;DHT22;9169;44.492;11.372;2023-07-29T06:12:08;28.40;47.40
18085;DHT22;9169;44.492;11.372;2023-07-29T06:14:36;28.50;47.50
18085;DHT22;9169;44.492;11.372;2023-07-29T06:17:05;28.50;47.40
18085;DHT22;9169;44.492;11.372;2023-07-29T06:19:34;28.60;47.30
18085;DHT22;9169;44.492;11.372;2023-07-29T06:22:03;28.60;47.10
18085;DHT22;9169;44.492;11.372;2023-07-29T06:24:32;28.60;47.10
18085;DHT22;9169;44.492;11.372;2023-07-29T06:27:01;28.60;47.10
18085;DHT22;9169;44.492;11.372;2023-07-29T06:29:31;28.70;47.00
18085;DHT22;9169;44.492;11.372;2023-07-29T06:32:00;28.70;47.00
18085;DHT22;9169;44.492;11.372;2023-07-29T06:34:29;28.80;46.90
18085;DHT22;9169;44.492;11.372;2023-07-29T06:36:58;28.80;46.80
18085;DHT22;9169;44.492;11.372;2023-07-29T06:39:26;28.80;46.90
18085;DHT22;9169;44.492;11.372;2023-07-29T06:41:55;28.80;46.90
18085;DHT22;9169;44.492;11.372;2023-07-29T06:44:23;28.90;46.80
18085;DHT22;9169;44.492;11.372;2023-07-29T06:46:53;28.90;47.30
18085;DHT22;9169;44.492;11.372;2023-07-29T06:49:22;28.90;46.70
18085;DHT22;9169;44.492;11.372;2023-07-29T06:51:50;28.90;46.70
18085;DHT22;9169;44.492;11.372;2023-07-29T06:54:19;28.90;46.60
18085;DHT22;9169;44.492;11.372;2023-07-29T06:56:52;29.00;46.70
18085;DHT22;9169;44.492;11.372;2023-07-29T06:59:21;28.90;46.40
18085;DHT22;9169;44.492;11.372;2023-07-29T07:01:53;29.00;46.60
18085;DHT22;9169;44.492;11.372;2023-07-29T07:04:21;29.00;46.70
18085;DHT22;9169;44.492;11.372;2023-07-29T07:06:50;29.00;46.50
18085;DHT22;9169;44.492;11.372;2023-07-29T07:09:19;29.00;46.60
18085;DHT22;9169;44.492;11.372;2023-07-29T07:11:48;29.10;46.50
18085;DHT22;9169;44.492;11.372;2023-07-29T07:14:16;29.10;46.40
18085;DHT22;9169;44.492;11.372;2023-07-29T07:16:45;29.10;46.50
18085;DHT22;9169;44.492;11.372;2023-07-29T07:19:15;29.10;46.60
18085;DHT22;9169;44.492;11.372;2023-07-29T07:21:44;29.20;46.50
18085;DHT22;9169;44.492;11.372;2023-07-29T07:24:12;29.20;46.40
18085;DHT22;9169;44.492;11.372;2023-07-29T07:26:41;29.20;46.10
18085;DHT22;9169;44.492;11.372;2023-07-29T07:29:10;29.30;46.10
18085;DHT22;9169;44.492;11.372;2023-07-29T07:31:39;29.30;46.10
18085;DHT22;9169;44.492;11.372;2023-07-29T07:34:07;29.30;46.00
18085;DHT22;9169;44.492;11.372;2023-07-29T07:36:38;29.40;46.10
18085;DHT22;9169;44.492;11.372;2023-07-29T07:39:08;29.40;46.10
18085;DHT22;9169;44.492;11.372;2023-07-29T07:41:37;29.40;46.60
18085;DHT22;9169;44.492;11.372;2023-07-29T07:44:08;29.50;46.10
18085;DHT22;9169;44.492;11.372;2023-07-29T07:46:38;29.50;46.10
18085;DHT22;9169;44.492;11.372;2023-07-29T07:49:08;29.50;46.00
18085;DHT22;9169;44.492;11.372;2023-07-29T07:51:46;29.50;45.90
18085;DHT22;9169;44.492;11.372;2023-07-29T07:54:15;29.50;46.00
18085;DHT22;9169;44.492;11.372;2023-07-29T07:56:44;29.60;46.00
18085;DHT22;9169;44.492;11.372;2023-07-29T07:59:13;29.60;46.00
18085;DHT22;9169;44.492;11.372;2023-07-29T08:01:50;29.60;45.90
18085;DHT22;9169;44.492;11.372;2023-07-29T08:04:19;29.60;45.70
18085;DHT22;9169;44.492;11.372;2023-07-29T08:06:49;29.70;45.80
18085;DHT22;9169;44.492;11.372;2023-07-29T08:09:23;29.70;45.80
18085;DHT22;9169;44.492;11.372;2023-07-29T08:11:52;29.70;45.60
18085;DHT22;9169;44.492;11.372;2023-07-29T08:14:27;29.70;45.60
18085;DHT22;9169;44.492;11.372;2023-07-29T08:16:57;29.70;45.50
18085;DHT22;9169;44.492;11.372;2023-07-29T08:19:27;29.80;46.10
18085;DHT22;9169;44.492;11.372;2023-07-29T08:21:57;29.80;45.50
18085;DHT22;9169;44.492;11.372;2023-07-29T08:24:26;29.80;45.60
18085;DHT22;9169;44.492;11.372;2023-07-29T08:26:54;29.90;45.50
18085;DHT22;9169;44.492;11.372;2023-07-29T08:29:23;29.90;45.50
18085;DHT22;9169;44.492;11.372;2023-07-29T08:31:52;29.90;45.40
18085;DHT22;9169;44.492;11.372;2023-07-29T08:34:22;30.00;45.40
18085;DHT22;9169;44.492;11.372;2023-07-29T08:36:51;29.90;45.10
18085;DHT22;9169;44.492;11.372;2023-07-29T08:39:22;30.00;45.30
18085;DHT22;9169;44.492;11.372;2023-07-29T08:41:56;30.00;45.20
18085;DHT22;9169;44.492;11.372;2023-07-29T08:44:27;30.10;45.20
18085;DHT22;9169;44.492;11.372;2023-07-29T08:46:59;30.10;45.00
18085;DHT22;9169;44.492;11.372;2023-07-29T08:49:31;30.10;45.00
18085;DHT22;9169;44.492;11.372;2023-07-29T08:52:01;30.10;44.90
18085;DHT22;9169;44.492;11.372;2023-07-29T08:54:31;30.20;44.90
18085;DHT22;9169;44.492;11.372;2023-07-29T08:57:00;30.20;44.90
18085;DHT22;9169;44.492;11.372;2023-07-29T08:59:29;30.20;44.70
18085;DHT22;9169;44.492;11.372;2023-07-29T09:01:58;30.20;44.60
18085;DHT22;9169;44.492;11.372;2023-07-29T09:04:27;30.20;44.60
18085;DHT22;9169;44.492;11.372;2023-07-29T09:06:56;30.30;44.80
18085;DHT22;9169;44.492;11.372;2023-07-29T09:09:25;30.30;44.90
18085;DHT22;9169;44.492;11.372;2023-07-29T09:11:55;30.30;44.70
18085;DHT22;9169;44.492;11.372;2023-07-29T09:14:24;30.40;44.80
18085;DHT22;9169;44.492;11.372;2023-07-29T09:16:53;30.40;44.70
18085;DHT22;9169;44.492;11.372;2023-07-29T09:19:25;30.40;44.50
18085;DHT22;9169;44.492;11.372;2023-07-29T09:21:54;30.50;44.70
18085;DHT22;9169;44.492;11.372;2023-07-29T09:24:23;30.50;44.70
18085;DHT22;9169;44.492;11.372;2023-07-29T09:26:52;30.60;44.60
18085;DHT22;9169;44.492;11.372;2023-07-29T09:29:23;30.60;44.80
18085;DHT22;9169;44.492;11.372;2023-07-29T09:31:52;30.70;44.90
18085;DHT22;9169;44.492;11.372;2023-07-29T09:34:21;30.80;44.80
18085;DHT22;9169;44.492;11.372;2023-07-29T09:36:51;30.80;44.80
18085;DHT22;9169;44.492;11.372;2023-07-29T09:39:23;30.90;44.80
18085;DHT22;9169;44.492;11.372;2023-07-29T09:41:52;31.00;44.90
18085;DHT22;9169;44.492;11.372;2023-07-29T09:44:20;31.00;44.80
18085;DHT22;9169;44.492;11.372;2023-07-29T09:46:50;31.10;44.80
18085;DHT22;9169;44.492;11.372;2023-07-29T09:49:19;31.30;44.80
18085;DHT22;9169;44.492;11.372;2023-07-29T09:51:47;31.40;44.80
18085;DHT22;9169;44.492;11.372;2023-07-29T09:54:16;31.50;44.90
18085;DHT22;9169;44.492;11.372;2023-07-29T09:56:45;31.70;44.70
18085;DHT22;9169;44.492;11.372;2023-07-29T09:59:18;31.80;44.60
18085;DHT22;9169;44.492;11.372;2023-07-29T10:01:47;31.90;44.50
18085;DHT22;9169;44.492;11.372;2023-07-29T10:04:17;32.20;44.30
18085;DHT22;9169;44.492;11.372;2023-07-29T10:06:47;32.30;44.10
18085;DHT22;9169;44.492;11.372;2023-07-29T10:09:18;32.50;43.80
18085;DHT22;9169;44.492;11.372;2023-07-29T10:11:49;32.70;43.60
18085;DHT22;9169;44.492;11.372;2023-07-29T10:14:20;32.90;43.40
18085;DHT22;9169;44.492;11.372;2023-07-29T10:16:50;33.10;43.30
18085;DHT22;9169;44.492;11.372;2023-07-29T10:19:24;33.30;43.00
18085;DHT22;9169;44.492;11.372;2023-07-29T10:21:55;33.50;42.90
18085;DHT22;9169;44.492;11.372;2023-07-29T10:24:26;33.60;42.50
18085;DHT22;9169;44.492;11.372;2023-07-29T10:26:58;33.70;42.20
18085;DHT22;9169;44.492;11.372;2023-07-29T10:29:30;33.80;41.80
18085;DHT22;9169;44.492;11.372;2023-07-29T10:32:02;33.80;41.70
18085;DHT22;9169;44.492;11.372;2023-07-29T10:34:33;33.90;41.10
18085;DHT22;9169;44.492;11.372;2023-07-29T10:37:03;33.90;41.10
18085;DHT22;9169;44.492;11.372;2023-07-29T10:39:38;33.90;40.90
18085;DHT22;9169;44.492;11.372;2023-07-29T10:42:07;33.80;40.60
18085;DHT22;9169;44.492;11.372;2023-07-29T10:44:50;33.80;40.70
18085;DHT22;9169;44.492;11.372;2023-07-29T10:47:21;33.80;40.80
18085;DHT22;9169;44.492;11.372;2023-07-29T10:49:53;33.80;40.60
18085;DHT22;9169;44.492;11.372;2023-07-29T10:52:40;33.70;40.40
18085;DHT22;9169;44.492;11.372;2023-07-29T10:55:31;33.70;40.50
18085;DHT22;9169;44.492;11.372;2023-07-29T10:58:08;33.80;40.80
18085;DHT22;9169;44.492;11.372;2023-07-29T11:00:38;33.80;40.60
18085;DHT22;9169;44.492;11.372;2023-07-29T11:03:07;33.80;40.60
18085;DHT22;9169;44.492;11.372;2023-07-29T11:05:48;33.90;40.80
18085;DHT22;9169;44.492;11.372;2023-07-29T11:08:22;33.90;40.40
18085;DHT22;9169;44.492;11.372;2023-07-29T11:11:01;33.80;40.10
18085;DHT22;9169;44.492;11.372;2023-07-29T11:13:32;33.80;40.30
18085;DHT22;9169;44.492;11.372;2023-07-29T11:16:02;33.90;40.80
18085;DHT22;9169;44.492;11.372;2023-07-29T11:18:32;33.90;40.70
18085;DHT22;9169;44.492;11.372;2023-07-29T11:21:03;34.00;40.40
18085;DHT22;9169;44.492;11.372;2023-07-29T11:23:34;34.00;40.20
18085;DHT22;9169;44.492;11.372;2023-07-29T11:26:04;34.00;39.90
18085;DHT22;9169;44.492;11.372;2023-07-29T11:28:38;34.00;40.20
18085;DHT22;9169;44.492;11.372;2023-07-29T11:31:07;34.00;40.30
18085;DHT22;9169;44.492;11.372;2023-07-29T11:33:39;34.00;40.30
18085;DHT22;9169;44.492;11.372;2023-07-29T11:36:18;34.10;40.50
18085;DHT22;9169;44.492;11.372;2023-07-29T11:38:48;34.10;40.30
18085;DHT22;9169;44.492;11.372;2023-07-29T11:41:20;34.20;40.30
18085;DHT22;9169;44.492;11.372;2023-07-29T11:43:49;34.20;40.10
18085;DHT22;9169;44.492;11.372;2023-07-29T11:46:22;34.30;39.90
18085;DHT22;9169;44.492;11.372;2023-07-29T11:48:50;34.30;39.70
18085;DHT22;9169;44.492;11.372;2023-07-29T11:51:23;34.40;39.90
18085;DHT22;9169;44.492;11.372;2023-07-29T11:53:54;34.50;39.80
18085;DHT22;9169;44.492;11.372;2023-07-29T11:56:23;34.60;39.70
18085;DHT22;9169;44.492;11.372;2023-07-29T11:58:55;34.70;39.80
18085;DHT22;9169;44.492;11.372;2023-07-29T12:01:24;34.70;39.70
18085;DHT22;9169;44.492;11.372;2023-07-29T12:03:52;34.80;39.50
18085;DHT22;9169;44.492;11.372;2023-07-29T12:06:23;35.00;39.60
18085;DHT22;9169;44.492;11.372;2023-07-29T12:08:52;35.20;39.50
18085;DHT22;9169;44.492;11.372;2023-07-29T12:11:21;35.70;39.00
18085;DHT22;9169;44.492;11.372;2023-07-29T12:13:50;36.40;38.70
18085;DHT22;9169;44.492;11.372;2023-07-29T12:16:21;37.10;38.00
18085;DHT22;9169;44.492;11.372;2023-07-29T12:18:50;37.90;37.60
18085;DHT22;9169;44.492;11.372;2023-07-29T12:21:19;38.60;36.60
18085;DHT22;9169;44.492;11.372;2023-07-29T12:23:50;39.30;36.30
18085;DHT22;9169;44.492;11.372;2023-07-29T12:26:19;39.90;35.90
18085;DHT22;9169;44.492;11.372;2023-07-29T12:28:48;40.40;35.10
18085;DHT22;9169;44.492;11.372;2023-07-29T12:31:17;40.60;34.40
18085;DHT22;9169;44.492;11.372;2023-07-29T12:33:46;40.90;34.00
18085;DHT22;9169;44.492;11.372;2023-07-29T12:36:14;41.20;33.50
18085;DHT22;9169;44.492;11.372;2023-07-29T12:38:45;41.50;33.80
18085;DHT22;9169;44.492;11.372;2023-07-29T12:41:15;42.10;34.20
18085;DHT22;9169;44.492;11.372;2023-07-29T12:43:45;42.50;33.20
18085;DHT22;9169;44.492;11.372;2023-07-29T12:46:14;43.20;32.90
18085;DHT22;9169;44.492;11.372;2023-07-29T12:48:42;43.60;32.30
18085;DHT22;9169;44.492;11.372;2023-07-29T12:51:11;43.80;32.10
18085;DHT22;9169;44.492;11.372;2023-07-29T12:53:40;44.00;31.80
18085;DHT22;9169;44.492;11.372;2023-07-29T12:56:08;43.80;31.10
18085;DHT22;9169;44.492;11.372;2023-07-29T12:58:38;43.40;31.10
18085;DHT22;9169;44.492;11.372;2023-07-29T13:01:07;42.80;31.20
18085;DHT22;9169;44.492;11.372;2023-07-29T13:03:37;42.50;31.60
18085;DHT22;9169;44.492;11.372;2023-07-29T13:06:08;42.20;31.50
18085;DHT22;9169;44.492;11.372;2023-07-29T13:08:37;41.90;31.80
18085;DHT22;9169;44.492;11.372;2023-07-29T13:11:06;41.60;32.10
18085;DHT22;9169;44.492;11.372;2023-07-29T13:13:34;41.80;32.40
18085;DHT22;9169;44.492;11.372;2023-07-29T13:16:05;42.00;31.90
18085;DHT22;9169;44.492;11.372;2023-07-29T13:18:34;42.10;32.30
18085;DHT22;9169;44.492;11.372;2023-07-29T13:21:03;42.30;32.30
18085;DHT22;9169;44.492;11.372;2023-07-29T13:23:31;42.50;31.80
18085;DHT22;9169;44.492;11.372;2023-07-29T13:26:00;42.80;31.90
18085;DHT22;9169;44.492;11.372;2023-07-29T13:28:29;43.20;31.60
18085;DHT22;9169;44.492;11.372;2023-07-29T13:30:58;43.70;31.50
18085;DHT22;9169;44.492;11.372;2023-07-29T13:33:27;44.00;30.90
18085;DHT22;9169;44.492;11.372;2023-07-29T13:36:01;44.20;30.70
18085;DHT22;9169;44.492;11.372;2023-07-29T13:38:30;44.70;30.70
18085;DHT22;9169;44.492;11.372;2023-07-29T13:40:59;45.10;30.50
18085;DHT22;9169;44.492;11.372;2023-07-29T13:43:28;45.40;30.00
18085;DHT22;9169;44.492;11.372;2023-07-29T13:45:57;45.50;30.00
18085;DHT22;9169;44.492;11.372;2023-07-29T13:48:25;45.60;29.90
18085;DHT22;9169;44.492;11.372;2023-07-29T13:50:56;45.80;29.80
18085;DHT22;9169;44.492;11.372;2023-07-29T13:53:24;46.10;29.50
18085;DHT22;9169;44.492;11.372;2023-07-29T13:55:53;46.20;29.40
18085;DHT22;9169;44.492;11.372;2023-07-29T13:58:22;46.40;29.40
18085;DHT22;9169;44.492;11.372;2023-07-29T14:00:51;46.50;29.20
18085;DHT22;9169;44.492;11.372;2023-07-29T14:03:19;46.70;29.10
18085;DHT22;9169;44.492;11.372;2023-07-29T14:05:48;46.80;29.00
18085;DHT22;9169;44.492;11.372;2023-07-29T14:08:19;46.80;28.80
18085;DHT22;9169;44.492;11.372;2023-07-29T14:10:48;46.70;28.50
18085;DHT22;9169;44.492;11.372;2023-07-29T14:13:17;46.20;28.30
18085;DHT22;9169;44.492;11.372;2023-07-29T14:15:45;45.60;28.60
18085;DHT22;9169;44.492;11.372;2023-07-29T14:18:14;45.20;28.90
18085;DHT22;9169;44.492;11.372;2023-07-29T14:20:43;45.00;28.80
18085;DHT22;9169;44.492;11.372;2023-07-29T14:23:11;45.00;28.90
18085;DHT22;9169;44.492;11.372;2023-07-29T14:25:41;45.10;28.90
18085;DHT22;9169;44.492;11.372;2023-07-29T14:28:10;45.00;28.90
18085;DHT22;9169;44.492;11.372;2023-07-29T14:30:39;44.80;28.90
18085;DHT22;9169;44.492;11.372;2023-07-29T14:33:08;44.30;29.00
18085;DHT22;9169;44.492;11.372;2023-07-29T14:35:39;43.80;29.20
18085;DHT22;9169;44.492;11.372;2023-07-29T14:38:08;43.30;29.50
18085;DHT22;9169;44.492;11.372;2023-07-29T14:40:37;42.70;29.80
18085;DHT22;9169;44.492;11.372;2023-07-29T14:43:07;42.30;30.60
18085;DHT22;9169;44.492;11.372;2023-07-29T14:45:36;41.90;30.10
18085;DHT22;9169;44.492;11.372;2023-07-29T14:48:04;41.50;30.60
18085;DHT22;9169;44.492;11.372;2023-07-29T14:50:34;41.20;30.70
18085;DHT22;9169;44.492;11.372;2023-07-29T14:53:03;40.90;31.10
18085;DHT22;9169;44.492;11.372;2023-07-29T14:55:32;40.50;31.20
18085;DHT22;9169;44.492;11.372;2023-07-29T14:58:01;40.30;31.40
18085;DHT22;9169;44.492;11.372;2023-07-29T15:00:31;40.00;31.70
18085;DHT22;9169;44.492;11.372;2023-07-29T15:03:00;39.80;31.90
18085;DHT22;9169;44.492;11.372;2023-07-29T15:05:29;39.50;32.20
18085;DHT22;9169;44.492;11.372;2023-07-29T15:07:57;39.30;32.40
18085;DHT22;9169;44.492;11.372;2023-07-29T15:10:26;39.00;32.40
18085;DHT22;9169;44.492;11.372;2023-07-29T15:12:55;38.80;32.70
18085;DHT22;9169;44.492;11.372;2023-07-29T15:15:26;38.60;32.80
18085;DHT22;9169;44.492;11.372;2023-07-29T15:17:56;38.50;33.40
18085;DHT22;9169;44.492;11.372;2023-07-29T15:20:25;38.40;33.40
18085;DHT22;9169;44.492;11.372;2023-07-29T15:22:55;38.40;33.50
18085;DHT22;9169;44.492;11.372;2023-07-29T15:25:24;38.40;33.60
18085;DHT22;9169;44.492;11.372;2023-07-29T15:27:53;38.40;33.60
18085;DHT22;9169;44.492;11.372;2023-07-29T15:30:22;38.30;33.50
18085;DHT22;9169;44.492;11.372;2023-07-29T15:32:52;38.20;33.50
18085;DHT22;9169;44.492;11.372;2023-07-29T15:35:23;38.10;33.50
18085;DHT22;9169;44.492;11.372;2023-07-29T15:37:51;38.00;33.80
18085;DHT22;9169;44.492;11.372;2023-07-29T15:40:20;37.90;34.20
18085;DHT22;9169;44.492;11.372;2023-07-29T15:42:49;38.00;34.30
18085;DHT22;9169;44.492;11.372;2023-07-29T15:45:17;38.40;35.20